Главная страница
METAR-TAF:

METAR-TAF

Аэропорты :

Порт-оф-Спейн, Тринидад, Тринидад и Тобаго

широта: 10-37N, долгота: 061-21W, высота над уровнем моря: 12 м

Текущие метеонаблюдения

Эта сводка был подготовлена 58 минут назад, в 22:00 UTC
Ветер 13 Узел от восточно-юго-восточный
Температура 28°C
Влажность 66%
Давление 1012 hPa
Видимость 10 км и более
небольшая облачность на высоте 2000 фута

METAR: TTPP 262200Z 11013KT 9999 FEW020 28/21 Q1012 NOSIG

Время: 18:58 (22:58 UTC)

Прогноз

Эта сводка был подготовлена 6 часа и 58 минут назад, в 16:00 UTC
Прогноз действительный с 26-го 18 UTC до 27-го 18 UTC
Ветер 15 Узел от восточный
Видимость 10 км и более
Отдельные облака на высоте 2500 фута
изменения
С 26-го 23 UTC до 27-го 02 UTC
Ветер 5 Узел от восточный
небольшая облачность на высоте 1800 фута

TAF: TTPP 261600Z 2618/2718 10015KT 9999 SCT025 BECMG 2623/2702 08005KT FEW018

Метеонаблюдения и прогнозы для более 4000 аэропортов (сводки METAR и TAF).

Имеющиеся станции представлены на карте желтыми и красными точками.

Чтобы увидеть название станции, наведите на нее мышь.

Затем щелкните, чтобы увидеть метеонаблюдения и метеопрогнозы.

Управление картой: чтобы увеличить масштаб, щелкните зеленые кнопки с черным крестиком; чтобы уменьшить масштаб, щелкните зеленую кнопку с тире; для просмотра соседних карт щелкайте зеленые стрелки.


METAR-TAF: